createdAt,value
2023-01-27T00:00:44.474Z,94033.59
2023-01-27T00:03:14.756Z,94032.59
2023-01-27T00:05:44.351Z,94032.78
2023-01-27T00:08:13.336Z,94038.19
2023-01-27T00:10:42.614Z,94034.97
2023-01-27T00:13:29.333Z,94035.00
2023-01-27T00:15:58.355Z,94027.78
2023-01-27T00:18:27.547Z,94023.97
2023-01-27T00:21:13.853Z,94022.53
2023-01-27T00:24:00.205Z,94030.97
2023-01-27T00:26:30.270Z,94029.78
2023-01-27T00:29:00.733Z,94031.16
2023-01-27T00:31:47.184Z,94017.31
2023-01-27T00:34:16.383Z,94000.28
2023-01-27T00:36:45.430Z,93991.03
2023-01-27T00:39:15.010Z,93988.44
2023-01-27T00:41:45.906Z,93994.66
2023-01-27T00:44:16.995Z,94002.69
2023-01-27T00:46:47.288Z,93999.88
2023-01-27T00:49:16.436Z,93997.69
2023-01-27T00:51:46.108Z,93988.47
2023-01-27T00:54:15.898Z,94000.91
2023-01-27T00:56:48.642Z,94006.31
2023-01-27T00:59:19.777Z,94012.72
2023-01-27T01:01:49.463Z,94008.50
2023-01-27T01:04:18.974Z,93999.69
2023-01-27T01:06:48.628Z,93996.69
2023-01-27T01:09:17.672Z,94004.91
2023-01-27T01:11:46.648Z,93993.88
2023-01-27T01:14:16.279Z,93989.88
2023-01-27T01:16:47.352Z,93996.50
2023-01-27T01:19:16.837Z,93997.28
2023-01-27T01:21:45.765Z,93999.50
2023-01-27T01:24:14.907Z,94004.72
2023-01-27T01:26:43.975Z,94011.53
2023-01-27T01:29:12.977Z,94015.53
2023-01-27T01:31:43.207Z,94013.34
2023-01-27T01:34:13.704Z,94015.34
2023-01-27T01:36:42.723Z,94019.94
2023-01-27T01:39:11.883Z,94019.34
2023-01-27T01:41:41.040Z,94012.72
2023-01-27T01:44:21.801Z,94018.75
2023-01-27T01:46:51.581Z,94019.34
2023-01-27T01:49:25.240Z,94028.78
2023-01-27T01:51:59.292Z,94029.78
2023-01-27T01:54:31.510Z,94023.16
2023-01-27T01:57:07.377Z,94030.38
2023-01-27T01:59:42.650Z,94024.34
2023-01-27T02:02:15.875Z,94014.75
2023-01-27T02:04:52.629Z,94010.50
2023-01-27T02:07:27.725Z,94008.72
2023-01-27T02:09:58.286Z,94003.28
2023-01-27T02:12:27.465Z,93998.47
2023-01-27T02:14:56.877Z,93988.47
2023-01-27T02:17:26.501Z,93980.00
2023-01-27T02:20:08.719Z,93985.44
2023-01-27T02:22:47.201Z,93972.78
2023-01-27T02:25:23.567Z,93966.38
2023-01-27T02:27:54.085Z,93964.34
2023-01-27T02:30:23.883Z,93952.91
2023-01-27T02:32:53.066Z,93947.91
2023-01-27T02:35:31.378Z,93945.09
2023-01-27T02:38:01.784Z,93928.22
2023-01-27T02:40:31.929Z,93930.84
2023-01-27T02:43:06.439Z,93920.59
2023-01-27T02:45:36.001Z,93920.81
2023-01-27T02:48:06.373Z,93927.03
2023-01-27T02:50:35.650Z,93926.44
2023-01-27T02:53:05.061Z,93926.25
2023-01-27T02:55:35.119Z,93931.06
2023-01-27T02:58:05.625Z,93947.31
2023-01-27T03:00:47.972Z,93935.88
2023-01-27T03:03:17.346Z,93943.50
2023-01-27T03:05:46.646Z,93944.94
2023-01-27T03:08:15.998Z,93952.16
2023-01-27T03:10:46.536Z,93952.38
2023-01-27T03:13:16.985Z,93947.75
2023-01-27T03:16:05.723Z,93941.72
2023-01-27T03:18:35.511Z,93947.53
2023-01-27T03:21:06.185Z,93945.94
2023-01-27T03:23:36.294Z,93950.56
2023-01-27T03:26:09.094Z,93944.75
2023-01-27T03:28:43.353Z,93940.75
2023-01-27T03:31:20.872Z,93936.13
2023-01-27T03:33:58.639Z,93932.75
2023-01-27T03:36:48.396Z,93925.72
2023-01-27T03:39:35.529Z,93924.50
2023-01-27T03:42:22.556Z,93920.91
2023-01-27T03:45:12.267Z,93918.69
2023-01-27T03:47:41.676Z,93929.13
2023-01-27T03:50:14.109Z,93932.13
2023-01-27T03:53:03.096Z,93931.13
2023-01-27T03:55:33.740Z,93919.91
2023-01-27T03:58:18.701Z,93915.88
2023-01-27T04:00:52.724Z,93917.69
2023-01-27T04:03:40.272Z,93907.44
2023-01-27T04:06:29.274Z,93904.84
2023-01-27T04:08:58.747Z,93897.22
2023-01-27T04:11:45.664Z,93897.44
2023-01-27T04:14:14.869Z,93892.00
2023-01-27T04:16:45.799Z,93900.00
2023-01-27T04:19:14.787Z,93903.66
2023-01-27T04:21:44.057Z,93906.47
2023-01-27T04:24:22.828Z,93913.47
2023-01-27T04:26:55.724Z,93923.72
2023-01-27T04:29:26.549Z,93930.53
2023-01-27T04:31:58.170Z,93939.75
2023-01-27T04:34:28.228Z,93935.34
2023-01-27T04:36:57.905Z,93947.97
2023-01-27T04:39:27.254Z,93956.97
2023-01-27T04:41:57.662Z,93962.19
2023-01-27T04:44:27.808Z,93977.22
2023-01-27T04:46:58.468Z,93987.25
2023-01-27T04:49:28.156Z,93997.47
2023-01-27T04:51:57.343Z,94005.88
2023-01-27T04:54:26.507Z,94007.69
2023-01-27T04:56:58.733Z,94014.09
2023-01-27T04:59:29.307Z,94011.84
2023-01-27T05:02:00.607Z,94010.06
2023-01-27T05:04:30.544Z,94016.03
2023-01-27T05:06:59.559Z,94010.22
2023-01-27T05:09:29.316Z,94005.03
2023-01-27T05:11:59.495Z,94000.22
2023-01-27T05:14:29.249Z,93998.41
2023-01-27T05:17:00.009Z,93999.41
2023-01-27T05:19:29.233Z,93992.22
2023-01-27T05:21:58.373Z,93999.84
2023-01-27T05:24:27.715Z,93994.81
2023-01-27T05:26:57.849Z,93979.81
2023-01-27T05:29:29.231Z,93957.16
2023-01-27T05:32:01.124Z,93969.94
2023-01-27T05:34:30.346Z,93990.59
2023-01-27T05:36:59.543Z,93984.00
2023-01-27T05:39:28.707Z,93971.78
2023-01-27T05:41:58.357Z,93973.59
2023-01-27T05:44:29.095Z,93968.22
2023-01-27T05:46:59.601Z,93976.22
2023-01-27T05:49:28.735Z,93982.81
2023-01-27T05:51:57.823Z,93975.00
2023-01-27T05:54:27.512Z,93959.78
2023-01-27T05:56:57.276Z,93954.94
2023-01-27T05:59:26.382Z,93962.97
2023-01-27T06:01:55.448Z,93971.22
2023-01-27T06:04:25.940Z,93957.97
2023-01-27T06:06:55.670Z,93965.38
2023-01-27T06:09:24.647Z,93951.78
2023-01-27T06:11:53.844Z,93953.56
2023-01-27T06:14:23.777Z,93967.78
2023-01-27T06:16:53.784Z,93973.81
2023-01-27T06:19:23.494Z,93976.41
2023-01-27T06:21:53.957Z,93989.03
2023-01-27T06:24:25.063Z,93993.47
2023-01-27T06:26:54.091Z,93990.47
2023-01-27T06:29:24.295Z,93982.66
2023-01-27T06:31:53.996Z,93989.66
2023-01-27T06:34:23.790Z,93985.22
2023-01-27T06:36:56.347Z,93988.03
2023-01-27T06:39:26.615Z,93982.59
2023-01-27T06:41:55.659Z,93977.59
2023-01-27T06:44:25.996Z,93997.03
2023-01-27T06:46:55.220Z,93996.44
2023-01-27T06:49:25.275Z,94006.47
2023-01-27T06:51:56.325Z,94008.06
2023-01-27T06:54:25.610Z,93995.47
2023-01-27T06:56:54.514Z,93991.63
2023-01-27T06:59:24.270Z,93994.44
2023-01-27T07:01:53.379Z,93992.63
2023-01-27T07:04:24.399Z,93993.66
2023-01-27T07:06:53.400Z,93994.88
2023-01-27T07:09:24.083Z,94004.69
2023-01-27T07:11:54.265Z,94005.28
2023-01-27T07:14:23.480Z,94007.09
2023-01-27T07:16:52.455Z,94008.69
2023-01-27T07:19:22.244Z,94006.88
2023-01-27T07:21:52.008Z,94005.28
2023-01-27T07:24:21.138Z,94000.22
2023-01-27T07:26:51.603Z,94011.66
2023-01-27T07:29:20.744Z,94015.84
2023-01-27T07:31:49.904Z,94024.31
2023-01-27T07:34:22.826Z,94016.50
2023-01-27T07:36:51.852Z,94010.69
2023-01-27T07:39:21.064Z,94001.69
2023-01-27T07:41:51.683Z,94014.31
2023-01-27T07:44:21.824Z,94023.56
2023-01-27T07:46:50.894Z,94023.94
2023-01-27T07:49:20.149Z,94025.56
2023-01-27T07:51:49.164Z,94013.31
2023-01-27T07:54:18.223Z,94009.94
2023-01-27T07:56:48.473Z,94016.13
2023-01-27T07:59:18.987Z,94021.38
2023-01-27T08:01:48.459Z,94021.97
2023-01-27T08:04:17.491Z,94026.19
2023-01-27T08:06:47.300Z,94015.16
2023-01-27T08:09:16.222Z,94009.09
2023-01-27T08:11:48.288Z,94014.31
2023-01-27T08:14:18.938Z,94013.91
2023-01-27T08:16:48.009Z,94013.69
2023-01-27T08:19:17.323Z,94026.16
2023-01-27T08:21:47.036Z,94028.56
2023-01-27T08:24:16.209Z,94019.16
2023-01-27T08:26:45.440Z,94013.13
2023-01-27T08:29:14.460Z,94002.91
2023-01-27T08:31:44.906Z,94008.91
2023-01-27T08:34:14.059Z,94001.69
2023-01-27T08:36:43.768Z,94007.72
2023-01-27T08:39:12.984Z,94002.31
2023-01-27T08:41:42.202Z,93997.69
2023-01-27T08:44:11.830Z,94004.31
2023-01-27T08:46:41.408Z,94009.13
2023-01-27T08:49:13.980Z,94019.16
2023-01-27T08:51:43.263Z,94020.34
2023-01-27T08:54:12.327Z,94024.56
2023-01-27T08:56:41.402Z,94032.00
2023-01-27T08:59:10.571Z,94026.16
2023-01-27T09:01:39.903Z,94025.16
2023-01-27T09:04:09.725Z,94014.16
2023-01-27T09:06:40.451Z,94032.59
2023-01-27T09:09:12.576Z,94024.75
2023-01-27T09:11:44.382Z,94024.34
2023-01-27T09:14:14.128Z,94032.81
2023-01-27T09:16:43.221Z,94022.97
2023-01-27T09:19:12.261Z,94023.16
2023-01-27T09:21:42.844Z,94024.75
2023-01-27T09:24:13.607Z,94027.75
2023-01-27T09:26:42.762Z,94038.19
2023-01-27T09:29:11.834Z,94027.34
2023-01-27T09:31:40.960Z,94031.97
2023-01-27T09:34:11.119Z,94018.09
2023-01-27T09:36:46.165Z,94019.16
2023-01-27T09:39:18.716Z,94016.72
2023-01-27T09:42:28.763Z,94017.91
2023-01-27T09:45:26.291Z,94006.69
2023-01-27T09:48:14.163Z,94002.88
2023-01-27T09:50:46.931Z,94005.69
2023-01-27T09:53:49.272Z,93995.47
2023-01-27T09:56:32.853Z,93994.69
2023-01-27T09:59:28.264Z,93989.44
2023-01-27T10:02:07.354Z,93992.25
2023-01-27T10:05:06.870Z,93995.06
2023-01-27T10:08:09.337Z,93985.81
2023-01-27T10:10:50.312Z,93990.25
2023-01-27T10:13:31.535Z,93981.19
2023-01-27T10:16:19.803Z,93973.81
2023-01-27T10:19:10.727Z,93968.97
2023-01-27T10:21:51.307Z,93968.19
2023-01-27T10:24:31.008Z,93961.75
2023-01-27T10:27:08.751Z,93962.53
2023-01-27T10:29:46.054Z,93958.34
2023-01-27T10:32:28.127Z,93945.69
2023-01-27T10:35:09.835Z,93960.91
2023-01-27T10:37:50.638Z,93946.88
2023-01-27T10:40:29.481Z,93945.25
2023-01-27T10:43:06.021Z,93955.72
2023-01-27T10:45:40.900Z,93964.75
2023-01-27T10:48:27.222Z,93946.88
2023-01-27T10:51:00.971Z,93956.94
2023-01-27T10:53:39.256Z,93936.06
2023-01-27T10:56:13.759Z,93935.47
2023-01-27T10:58:51.912Z,93940.88
2023-01-27T11:01:31.540Z,93945.09
2023-01-27T11:04:05.393Z,93938.09
2023-01-27T11:06:39.228Z,93936.28
2023-01-27T11:09:17.541Z,93935.28
2023-01-27T11:11:49.642Z,93934.66
2023-01-27T11:14:25.289Z,93940.06
2023-01-27T11:17:03.189Z,93939.84
2023-01-27T11:19:44.361Z,93940.66
2023-01-27T11:22:21.649Z,93936.22
2023-01-27T11:24:59.372Z,93937.66
2023-01-27T11:27:55.477Z,93936.88
2023-01-27T11:30:33.620Z,93948.53
2023-01-27T11:33:13.181Z,93931.88
2023-01-27T11:35:42.264Z,93940.91
2023-01-27T11:38:18.450Z,93933.66
2023-01-27T11:40:50.747Z,93939.66
2023-01-27T11:43:22.265Z,93936.69
2023-01-27T11:45:53.912Z,93942.13
2023-01-27T11:48:24.532Z,93924.44
2023-01-27T11:50:53.683Z,93928.66
2023-01-27T11:53:28.029Z,93933.69
2023-01-27T11:56:01.984Z,93937.69
2023-01-27T11:58:38.627Z,93936.09
2023-01-27T12:01:16.825Z,93945.13
2023-01-27T12:03:56.099Z,93942.91
2023-01-27T12:06:34.514Z,93952.38
2023-01-27T12:09:03.745Z,93939.09
2023-01-27T12:11:33.988Z,93942.53
2023-01-27T12:14:05.711Z,93925.63
2023-01-27T12:16:50.855Z,93927.84
2023-01-27T12:19:29.465Z,93925.41
2023-01-27T12:22:02.471Z,93918.81
2023-01-27T12:24:33.345Z,93925.22
2023-01-27T12:27:04.622Z,93925.56
2023-01-27T12:29:40.567Z,93925.75
2023-01-27T12:32:18.731Z,93913.34
2023-01-27T12:34:56.577Z,93923.31
2023-01-27T12:37:32.066Z,93925.47
2023-01-27T12:40:04.190Z,93919.00
2023-01-27T12:42:42.009Z,93919.41
2023-01-27T12:45:23.534Z,93914.97
2023-01-27T12:48:02.399Z,93919.94
2023-01-27T12:50:34.567Z,93907.03
2023-01-27T12:53:12.183Z,93911.91
2023-01-27T12:55:43.288Z,93909.50
2023-01-27T12:58:32.061Z,93918.75
2023-01-27T13:01:03.847Z,93923.63
2023-01-27T13:03:40.562Z,93917.28
2023-01-27T13:06:15.709Z,93911.63
2023-01-27T13:08:45.868Z,93915.56
2023-01-27T13:11:15.193Z,93917.88
2023-01-27T13:13:51.764Z,93920.34
2023-01-27T13:16:28.441Z,93915.66
2023-01-27T13:18:59.721Z,93909.94
2023-01-27T13:21:36.733Z,93912.91
2023-01-27T13:24:12.009Z,93922.59
2023-01-27T13:26:42.896Z,93914.88
2023-01-27T13:29:17.769Z,93911.09
2023-01-27T13:31:52.593Z,93913.88
2023-01-27T13:34:29.871Z,93921.69
2023-01-27T13:37:05.437Z,93928.97
2023-01-27T13:39:49.222Z,93921.09
2023-01-27T13:42:29.968Z,93927.16
2023-01-27T13:45:04.333Z,93926.19
2023-01-27T13:47:41.492Z,93927.19
2023-01-27T13:50:25.320Z,93915.00
2023-01-27T13:52:58.799Z,93909.19
2023-01-27T13:55:44.702Z,93911.63
2023-01-27T13:58:23.216Z,93911.81
2023-01-27T14:00:59.237Z,93918.66
2023-01-27T14:03:54.845Z,93921.84
2023-01-27T14:06:38.669Z,93919.88
2023-01-27T14:09:22.016Z,93920.66
2023-01-27T14:11:57.537Z,93932.50
2023-01-27T14:14:52.527Z,93927.72
2023-01-27T14:17:37.065Z,93938.53
2023-01-27T14:20:26.588Z,93935.91
2023-01-27T14:23:06.664Z,93943.94
2023-01-27T14:25:43.793Z,93944.53
2023-01-27T14:28:27.416Z,93933.50
2023-01-27T14:31:02.277Z,93943.75
2023-01-27T14:33:46.133Z,93946.75
2023-01-27T14:36:21.663Z,93953.16
2023-01-27T14:39:01.058Z,93956.56
2023-01-27T14:41:41.678Z,93962.00
2023-01-27T14:44:20.619Z,93961.00
2023-01-27T14:47:01.998Z,93960.38
2023-01-27T14:49:51.328Z,93967.00
2023-01-27T14:52:32.073Z,93971.44
2023-01-27T14:55:20.800Z,93972.81
2023-01-27T14:58:00.321Z,93982.03
2023-01-27T15:00:42.836Z,93989.47
2023-01-27T15:03:40.417Z,93987.44
2023-01-27T15:06:17.191Z,93996.06
2023-01-27T15:08:54.173Z,94001.31
2023-01-27T15:11:46.357Z,93996.09
2023-01-27T15:14:42.559Z,93996.50
2023-01-27T15:17:32.775Z,94004.31
2023-01-27T15:20:22.081Z,94006.69
2023-01-27T15:23:10.019Z,94017.56
2023-01-27T15:25:41.701Z,94007.13
2023-01-27T15:28:14.952Z,94014.53
2023-01-27T15:31:09.846Z,94004.91
2023-01-27T15:33:53.282Z,94021.16
2023-01-27T15:36:36.576Z,94019.56
2023-01-27T15:39:35.580Z,94021.53
2023-01-27T15:42:13.711Z,94025.16
2023-01-27T15:45:04.419Z,94020.75
2023-01-27T15:47:37.102Z,94019.34
2023-01-27T15:50:24.878Z,94029.59
2023-01-27T15:53:00.481Z,94026.75
2023-01-27T15:55:32.170Z,94020.34
2023-01-27T15:58:22.437Z,94024.38
2023-01-27T16:00:55.219Z,94025.56
2023-01-27T16:03:32.614Z,94029.97
2023-01-27T16:06:09.891Z,94019.53
2023-01-27T16:08:43.592Z,94023.16
2023-01-27T16:11:39.700Z,94026.38
2023-01-27T16:14:41.712Z,94033.38
2023-01-27T16:17:26.787Z,94032.38
2023-01-27T16:20:28.904Z,94036.19
2023-01-27T16:23:04.331Z,94039.16
2023-01-27T16:25:42.751Z,94028.34
2023-01-27T16:28:18.215Z,94045.41
2023-01-27T16:31:04.059Z,94037.94
2023-01-27T16:33:38.704Z,94038.97
2023-01-27T16:36:11.283Z,94034.97
2023-01-27T16:38:42.700Z,94034.75
2023-01-27T16:41:19.701Z,94031.56
2023-01-27T16:43:53.600Z,94043.59
2023-01-27T16:46:31.655Z,94043.19
2023-01-27T16:49:05.027Z,94041.59
2023-01-27T16:51:37.003Z,94041.00
2023-01-27T16:54:19.450Z,94042.81
2023-01-27T16:56:53.290Z,94044.00
2023-01-27T16:59:26.935Z,94046.63
2023-01-27T17:02:01.928Z,94043.78
2023-01-27T17:04:33.697Z,94039.19
2023-01-27T17:07:11.770Z,94049.00
2023-01-27T17:09:43.448Z,94034.41
2023-01-27T17:12:28.624Z,94046.78
2023-01-27T17:14:58.792Z,94053.84
2023-01-27T17:17:30.560Z,94042.00
2023-01-27T17:20:04.497Z,94059.03
2023-01-27T17:22:39.281Z,94056.84
2023-01-27T17:25:16.663Z,94060.88
2023-01-27T17:27:47.130Z,94064.47
2023-01-27T17:30:22.917Z,94060.03
2023-01-27T17:32:54.842Z,94066.47
2023-01-27T17:35:26.984Z,94067.47
2023-01-27T17:38:11.563Z,94075.28
2023-01-27T17:40:43.465Z,94079.34
2023-01-27T17:43:32.222Z,94084.91
2023-01-27T17:46:16.863Z,94082.13
2023-01-27T17:48:52.915Z,94085.16
2023-01-27T17:51:25.022Z,94086.53
2023-01-27T17:53:56.409Z,94091.94
2023-01-27T17:56:30.298Z,94090.75
2023-01-27T17:59:05.759Z,94096.97
2023-01-27T18:01:36.138Z,94094.75
2023-01-27T18:04:07.386Z,94095.75
2023-01-27T18:06:37.898Z,94091.16
2023-01-27T18:09:19.959Z,94099.41
2023-01-27T18:11:55.580Z,94098.97
2023-01-27T18:14:24.943Z,94102.19
2023-01-27T18:17:04.728Z,94101.41
2023-01-27T18:19:34.655Z,94113.00
2023-01-27T18:22:12.692Z,94105.78
2023-01-27T18:24:51.810Z,94104.63
2023-01-27T18:27:27.762Z,94109.78
2023-01-27T18:30:02.923Z,94112.41
2023-01-27T18:32:40.573Z,94111.00
2023-01-27T18:35:24.733Z,94122.78
2023-01-27T18:37:56.450Z,94125.22
2023-01-27T18:40:32.935Z,94115.00
2023-01-27T18:43:03.836Z,94121.44
2023-01-27T18:45:33.707Z,94122.25
2023-01-27T18:48:04.267Z,94131.88
2023-01-27T18:50:34.137Z,94131.28
2023-01-27T18:53:03.518Z,94132.28
2023-01-27T18:55:35.164Z,94134.44
2023-01-27T18:58:04.524Z,94138.09
2023-01-27T19:00:38.905Z,94133.66
2023-01-27T19:03:14.757Z,94127.78
2023-01-27T19:05:44.291Z,94129.81
2023-01-27T19:08:16.308Z,94126.22
2023-01-27T19:10:48.072Z,94127.22
2023-01-27T19:13:18.562Z,94128.63
2023-01-27T19:15:50.683Z,94130.19
2023-01-27T19:18:26.024Z,94127.81
2023-01-27T19:20:55.973Z,94127.63
2023-01-27T19:23:25.131Z,94133.66
2023-01-27T19:25:58.814Z,94134.66
2023-01-27T19:28:32.356Z,94135.28
2023-01-27T19:31:02.264Z,94135.69
2023-01-27T19:33:32.807Z,94137.88
2023-01-27T19:36:11.826Z,94132.06
2023-01-27T19:38:41.034Z,94129.25
2023-01-27T19:41:12.748Z,94131.66
2023-01-27T19:43:42.986Z,94128.28
2023-01-27T19:46:15.342Z,94127.25
2023-01-27T19:48:44.735Z,94131.88
2023-01-27T19:51:14.398Z,94137.47
2023-01-27T19:53:43.641Z,94145.69
2023-01-27T19:56:17.893Z,94148.09
2023-01-27T19:58:51.043Z,94147.09
2023-01-27T20:01:20.543Z,94148.13
2023-01-27T20:03:51.382Z,94149.13
2023-01-27T20:06:22.491Z,94154.31
2023-01-27T20:08:55.581Z,94154.31
2023-01-27T20:11:36.074Z,94155.53
2023-01-27T20:14:07.933Z,94154.13
2023-01-27T20:16:37.067Z,94145.09
2023-01-27T20:19:06.314Z,94155.09
2023-01-27T20:21:35.457Z,94159.34
2023-01-27T20:24:04.768Z,94150.28
2023-01-27T20:26:37.660Z,94154.88
2023-01-27T20:29:06.696Z,94152.50
2023-01-27T20:31:36.275Z,94162.94
2023-01-27T20:34:05.574Z,94162.38
2023-01-27T20:36:35.825Z,94166.78
2023-01-27T20:39:05.059Z,94160.34
2023-01-27T20:41:35.623Z,94168.16
2023-01-27T20:44:04.691Z,94172.31
2023-01-27T20:46:33.918Z,94165.97
2023-01-27T20:49:03.022Z,94177.78
2023-01-27T20:51:32.985Z,94170.56
2023-01-27T20:54:02.576Z,94174.59
2023-01-27T20:56:31.712Z,94177.97
2023-01-27T20:59:02.452Z,94178.38
2023-01-27T21:01:33.252Z,94188.81
2023-01-27T21:04:02.578Z,94185.22
2023-01-27T21:06:32.479Z,94184.22
2023-01-27T21:09:01.726Z,94189.63
2023-01-27T21:11:31.071Z,94192.00
2023-01-27T21:14:01.614Z,94189.44
2023-01-27T21:16:31.470Z,94178.16
2023-01-27T21:19:01.151Z,94192.97
2023-01-27T21:21:32.057Z,94197.59
2023-01-27T21:24:01.678Z,94198.81
2023-01-27T21:26:30.881Z,94199.84
2023-01-27T21:29:01.292Z,94197.72
2023-01-27T21:31:32.710Z,94207.19
2023-01-27T21:34:01.887Z,94212.84
2023-01-27T21:36:31.579Z,94205.22
2023-01-27T21:39:02.612Z,94203.78
2023-01-27T21:41:49.148Z,94217.19
2023-01-27T21:44:37.955Z,94209.00
2023-01-27T21:47:09.729Z,94200.00
2023-01-27T21:49:53.880Z,94217.44
2023-01-27T21:52:23.620Z,94217.25
2023-01-27T21:54:52.703Z,94216.25
2023-01-27T21:57:22.038Z,94216.63
2023-01-27T21:59:51.931Z,94215.06
2023-01-27T22:02:22.606Z,94218.91
2023-01-27T22:04:52.951Z,94225.69
2023-01-27T22:07:22.281Z,94221.28
2023-01-27T22:09:52.324Z,94224.88
2023-01-27T22:12:22.503Z,94227.47
2023-01-27T22:14:51.556Z,94227.63
2023-01-27T22:17:22.326Z,94228.88
2023-01-27T22:19:51.348Z,94223.50
2023-01-27T22:22:20.375Z,94222.47
2023-01-27T22:24:49.885Z,94222.09
2023-01-27T22:27:20.039Z,94216.06
2023-01-27T22:29:49.053Z,94215.69
2023-01-27T22:32:18.266Z,94212.47
2023-01-27T22:34:48.900Z,94220.47
2023-01-27T22:37:18.080Z,94212.59
2023-01-27T22:39:47.189Z,94218.41
2023-01-27T22:42:16.372Z,94225.19
2023-01-27T22:44:46.043Z,94219.16
2023-01-27T22:47:15.947Z,94232.19
2023-01-27T22:49:45.122Z,94220.94
2023-01-27T22:52:16.865Z,94224.56
2023-01-27T22:54:45.898Z,94219.50
2023-01-27T22:57:15.145Z,94215.31
2023-01-27T22:59:44.190Z,94226.91
2023-01-27T23:02:13.469Z,94214.69
2023-01-27T23:04:42.510Z,94214.69
2023-01-27T23:07:12.185Z,94213.06
2023-01-27T23:09:42.771Z,94216.31
2023-01-27T23:12:11.862Z,94208.31
2023-01-27T23:14:41.123Z,94199.03
2023-01-27T23:17:10.478Z,94214.88
2023-01-27T23:19:40.068Z,94216.69
2023-01-27T23:22:09.004Z,94215.88
2023-01-27T23:24:38.142Z,94232.53
2023-01-27T23:27:09.266Z,94228.59
2023-01-27T23:29:38.424Z,94221.56
2023-01-27T23:32:08.010Z,94219.16
2023-01-27T23:34:38.339Z,94221.16
2023-01-27T23:37:07.399Z,94223.16
2023-01-27T23:39:36.406Z,94228.97
2023-01-27T23:42:05.630Z,94219.97
2023-01-27T23:44:36.156Z,94223.38
2023-01-27T23:47:05.767Z,94232.81
2023-01-27T23:49:35.389Z,94232.00
2023-01-27T23:52:05.372Z,94241.25
2023-01-27T23:54:38.306Z,94242.75
2023-01-27T23:57:07.416Z,94236.13
2023-01-27T23:59:37.923Z,94235.13
